Flight Track Log - Related Links

Times and Time Zones

All times are in EDT time to prevent confusion due to time zone crossing. See the EJA583 flight status page for this flight to view local times or setup timezone preferences in your user account.


Time Position Orientation Groundspeed Altitude Reporting Facility
EDT Latitude Longitude Course Direction KTS MPH feet Rate Location/Type
Wed 01:38:05 PM 39.0500 -121.5500 226° Southwest 194 223 1,800  Level Northern Cal TRACON
Wed 01:38:59 PM 39.0167 -121.5833 218° Southwest 259 298 3,900 2,684 Climbing Northern Cal TRACON
Wed 01:39:59 PM 39.0333 -121.6833 282° West 284 327 6,900 2,490 Climbing Northern Cal TRACON
Wed 01:41:26 PM 39.0456 -121.8094 277° West 287 330 10,000 1,257 Climbing Oakland Center
Wed 01:42:27 PM 39.0611 -121.9331 279° West 343 395 10,000 -49 Level Oakland Center
Wed 01:43:00 PM 39.0216 -122.0657 226° Southwest  Level FlightAware Approximate
Wed 01:43:29 PM 39.0367 -122.0744 257° West 353 406 9,900  Level Oakland Center
Wed 01:44:30 PM 38.9714 -122.1658 227° Southwest 350 403 9,900  Level Oakland Center
Wed 01:45:32 PM 38.9056 -122.2578 227° Southwest 351 404 9,900  Level Oakland Center
Wed 01:46:33 PM 38.8347 -122.3411 223° Southwest 350 403 9,900  Level Oakland Center
Wed 01:47:35 PM 38.7575 -122.4150 217° Southwest 347 399 9,900  Level Oakland Center
Wed 01:48:36 PM 38.6856 -122.4856 217° Southwest 331 381 9,900 -390 Level Oakland Center
Wed 01:49:38 PM 38.6139 -122.5286 205° Southwest 300 345 9,100 -1,463 Descending Oakland Center
Wed 01:50:39 PM 38.5272 -122.5650 198° South 276 318 6,900 -1,951 Descending Oakland Center
Wed 01:51:41 PM 38.4575 -122.5844 192° South 260 299 5,100 -927 Descending Oakland Center
Wed 01:52:42 PM 38.3975 -122.6019 193° South 229 264 5,000 -195 Descending Oakland Center
Wed 01:53:44 PM 38.3386 -122.6200 194° South 220 253 4,700 -244 Descending Oakland Center
Wed 01:54:45 PM 38.2833 -122.6367 193° South 211 243 4,500 -98 Descending Oakland Center
Wed 01:55:47 PM 38.2656 -122.6839 244° Southwest 210 242 4,500 -293 Level Oakland Center
Wed 01:56:48 PM 38.3183 -122.7097 339° North 207 238 3,900 -829 Descending Oakland Center
Wed 01:57:50 PM 38.3767 -122.7367 340° North 195 224 2,800 -976 Descending Oakland Center
Wed 01:58:51 PM 38.4178 -122.7614 335° Northwest 178 205 1,900 -780 Descending Oakland Center
Wed 01:59:53 PM 38.4525 -122.7797 338° Northwest 156 180 1,200 -629 Descending Oakland Center
Wed 02:00:55 PM 38.4850 -122.7969 337° Northwest 139 160 600 -581 Descending Oakland Center

Login

Don't have an account? Register now (free) for customized features, flight alerts, and more!